createdAt,value
2023-05-10T00:00:21.460Z,101017.81
2023-05-10T00:02:48.268Z,101022.25
2023-05-10T00:05:15.248Z,101014.28
2023-05-10T00:07:42.002Z,101018.66
2023-05-10T00:10:08.848Z,101017.66
2023-05-10T00:12:35.448Z,101015.16
2023-05-10T00:15:02.270Z,101011.50
2023-05-10T00:17:28.754Z,101011.13
2023-05-10T00:19:55.586Z,101007.63
2023-05-10T00:22:22.274Z,101009.56
2023-05-10T00:24:48.739Z,101010.88
2023-05-10T00:27:15.453Z,101012.84
2023-05-10T00:29:41.918Z,101009.91
2023-05-10T00:32:08.827Z,101006.41
2023-05-10T00:34:35.460Z,101008.94
2023-05-10T00:37:02.484Z,101004.47
2023-05-10T00:39:29.606Z,101008.94
2023-05-10T00:41:56.061Z,101016.09
2023-05-10T00:44:22.491Z,101011.72
2023-05-10T00:46:50.155Z,101017.91
2023-05-10T00:49:17.442Z,101012.34
2023-05-10T00:51:45.643Z,101006.19
2023-05-10T00:54:13.325Z,101007.84
2023-05-10T00:56:40.559Z,101012.22
2023-05-10T00:59:07.652Z,101010.63
2023-05-10T01:01:34.600Z,101010.88
2023-05-10T01:04:01.656Z,101010.88
2023-05-10T01:06:28.691Z,101010.06
2023-05-10T01:08:55.337Z,101012.84
2023-05-10T01:11:22.257Z,101008.34
2023-05-10T01:13:55.654Z,101016.22
2023-05-10T01:16:22.191Z,101012.84
2023-05-10T01:18:50.491Z,101014.41
2023-05-10T01:21:47.705Z,101017.16
2023-05-10T01:24:26.589Z,101018.88
2023-05-10T01:27:20.860Z,101017.91
2023-05-10T01:30:13.998Z,101012.56
2023-05-10T01:32:51.533Z,101008.34
2023-05-10T01:35:33.613Z,101013.56
2023-05-10T01:38:09.734Z,101011.72
2023-05-10T01:41:02.556Z,101008.22
2023-05-10T01:43:36.515Z,101019.72
2023-05-10T01:46:15.600Z,101018.88
2023-05-10T01:48:53.030Z,101020.56
2023-05-10T01:51:26.121Z,101014.50
2023-05-10T01:54:01.483Z,101013.56
2023-05-10T01:56:30.606Z,101017.91
2023-05-10T01:58:59.681Z,101015.22
2023-05-10T02:01:27.659Z,101003.84
2023-05-10T02:03:56.590Z,101026.88
2023-05-10T02:06:24.715Z,101017.31
2023-05-10T02:08:53.179Z,101018.38
2023-05-10T02:11:21.965Z,101025.66
2023-05-10T02:13:51.429Z,101022.03
2023-05-10T02:16:19.217Z,101023.59
2023-05-10T02:18:46.812Z,101026.88
2023-05-10T02:21:16.345Z,101026.03
2023-05-10T02:23:44.213Z,101030.47
2023-05-10T02:26:12.972Z,101029.66
2023-05-10T02:28:41.333Z,101029.66
2023-05-10T02:31:10.702Z,101028.81
2023-05-10T02:33:40.845Z,101034.38
2023-05-10T02:36:09.662Z,101036.19
2023-05-10T02:38:37.673Z,101036.31
2023-05-10T02:41:06.601Z,101033.63
2023-05-10T02:43:34.781Z,101038.97
2023-05-10T02:46:01.777Z,101046.94
2023-05-10T02:48:28.895Z,101054.22
2023-05-10T02:51:01.542Z,101043.81
2023-05-10T02:53:39.321Z,101048.41
2023-05-10T02:56:14.358Z,101040.53
2023-05-10T02:58:41.070Z,101044.81
2023-05-10T03:01:08.738Z,101047.47
2023-05-10T03:03:35.395Z,101047.59
2023-05-10T03:06:01.903Z,101044.69
2023-05-10T03:08:30.423Z,101054.97
2023-05-10T03:11:15.245Z,101051.06
2023-05-10T03:14:12.842Z,101055.31
2023-05-10T03:16:48.084Z,101050.22
2023-05-10T03:19:27.186Z,101055.53
2023-05-10T03:21:56.873Z,101052.25
2023-05-10T03:24:28.354Z,101063.63
2023-05-10T03:27:00.058Z,101063.63
2023-05-10T03:29:27.356Z,101068.09
2023-05-10T03:31:53.936Z,101070.88
2023-05-10T03:34:26.855Z,101073.44
2023-05-10T03:36:53.418Z,101070.88
2023-05-10T03:39:20.277Z,101069.06
2023-05-10T03:41:46.716Z,101067.22
2023-05-10T03:44:13.232Z,101061.22
2023-05-10T03:46:39.681Z,101066.66
2023-05-10T03:49:06.452Z,101064.56
2023-05-10T03:51:33.248Z,101061.31
2023-05-10T03:53:59.743Z,101060.59
2023-05-10T03:56:26.573Z,101064.00
2023-05-10T03:58:53.085Z,101066.53
2023-05-10T04:01:19.519Z,101070.78
2023-05-10T04:03:46.408Z,101064.56
2023-05-10T04:06:13.109Z,101067.38
2023-05-10T04:08:39.811Z,101073.53
2023-05-10T04:11:10.652Z,101067.50
2023-05-10T04:13:37.907Z,101075.09
2023-05-10T04:16:05.088Z,101070.78
2023-05-10T04:18:32.414Z,101077.88
2023-05-10T04:20:58.926Z,101072.56
2023-05-10T04:23:25.505Z,101072.34
2023-05-10T04:25:51.998Z,101076.94
2023-05-10T04:28:18.471Z,101073.06
2023-05-10T04:30:45.077Z,101068.47
2023-05-10T04:33:11.527Z,101072.81
2023-05-10T04:35:38.036Z,101078.88
2023-05-10T04:38:04.492Z,101079.72
2023-05-10T04:40:30.960Z,101081.53
2023-05-10T04:42:57.462Z,101074.53
2023-05-10T04:45:23.905Z,101079.13
2023-05-10T04:47:50.448Z,101079.97
2023-05-10T04:50:17.313Z,101086.13
2023-05-10T04:52:43.946Z,101086.84
2023-05-10T04:55:10.982Z,101089.16
2023-05-10T04:57:37.535Z,101091.69
2023-05-10T05:00:04.863Z,101095.34
2023-05-10T05:02:31.756Z,101099.66
2023-05-10T05:04:58.871Z,101099.81
2023-05-10T05:07:25.318Z,101097.16
2023-05-10T05:09:51.752Z,101108.91
2023-05-10T05:12:18.179Z,101099.94
2023-05-10T05:14:44.661Z,101105.25
2023-05-10T05:17:11.115Z,101103.31
2023-05-10T05:19:37.956Z,101105.13
2023-05-10T05:22:04.675Z,101104.06
2023-05-10T05:24:36.724Z,101117.16
2023-05-10T05:27:03.409Z,101110.84
2023-05-10T05:29:30.043Z,101119.81
2023-05-10T05:31:56.684Z,101124.16
2023-05-10T05:34:23.407Z,101121.75
2023-05-10T05:36:49.900Z,101122.22
2023-05-10T05:39:16.668Z,101120.28
2023-05-10T05:41:43.553Z,101129.25
2023-05-10T05:44:10.021Z,101124.78
2023-05-10T05:46:36.493Z,101125.72
2023-05-10T05:49:02.928Z,101133.13
2023-05-10T05:51:29.520Z,101134.69
2023-05-10T05:53:56.295Z,101130.00
2023-05-10T05:56:25.590Z,101141.38
2023-05-10T05:58:52.319Z,101131.56
2023-05-10T06:01:18.837Z,101133.59
2023-05-10T06:03:45.471Z,101152.25
2023-05-10T06:06:12.082Z,101153.22
2023-05-10T06:08:38.565Z,101158.66
2023-05-10T06:11:05.295Z,101158.03
2023-05-10T06:13:33.726Z,101170.50
2023-05-10T06:16:00.471Z,101162.84
2023-05-10T06:18:27.314Z,101168.69
2023-05-10T06:20:53.779Z,101175.84
2023-05-10T06:23:20.257Z,101172.34
2023-05-10T06:25:46.928Z,101172.63
2023-05-10T06:28:13.477Z,101172.78
2023-05-10T06:30:39.935Z,101170.84
2023-05-10T06:33:06.654Z,101167.19
2023-05-10T06:35:34.524Z,101162.88
2023-05-10T06:38:01.021Z,101166.53
2023-05-10T06:40:27.660Z,101170.66
2023-05-10T06:42:54.261Z,101175.84
2023-05-10T06:45:21.017Z,101181.06
2023-05-10T06:47:47.652Z,101182.97
2023-05-10T06:50:14.346Z,101184.44
2023-05-10T06:52:40.842Z,101185.03
2023-05-10T06:55:08.026Z,101187.94
2023-05-10T06:57:34.726Z,101197.41
2023-05-10T07:00:01.292Z,101195.31
2023-05-10T07:02:28.077Z,101197.97
2023-05-10T07:04:55.108Z,101187.09
2023-05-10T07:07:21.740Z,101189.28
2023-05-10T07:09:48.433Z,101188.78
2023-05-10T07:12:15.849Z,101204.06
2023-05-10T07:14:43.090Z,101202.88
2023-05-10T07:17:09.822Z,101199.84
2023-05-10T07:19:36.905Z,101211.06
2023-05-10T07:22:03.840Z,101211.31
2023-05-10T07:24:30.847Z,101207.56
2023-05-10T07:26:57.331Z,101214.94
2023-05-10T07:29:23.806Z,101201.63
2023-05-10T07:31:50.294Z,101214.25
2023-05-10T07:34:16.829Z,101217.28
2023-05-10T07:36:43.495Z,101219.69
2023-05-10T07:39:11.423Z,101217.63
2023-05-10T07:41:38.620Z,101225.03
2023-05-10T07:44:05.898Z,101228.06
2023-05-10T07:46:32.753Z,101225.13
2023-05-10T07:48:59.628Z,101235.09
2023-05-10T07:51:26.256Z,101233.88
2023-05-10T07:53:52.943Z,101238.22
2023-05-10T07:56:33.248Z,101234.44
2023-05-10T07:59:00.406Z,101233.38
2023-05-10T08:01:30.788Z,101246.81
2023-05-10T08:03:57.317Z,101244.75
2023-05-10T08:06:23.959Z,101245.97
2023-05-10T08:08:51.509Z,101254.81
2023-05-10T08:11:18.557Z,101255.28
2023-05-10T08:13:49.777Z,101258.19
2023-05-10T08:16:16.888Z,101252.50
2023-05-10T08:18:50.045Z,101257.13
2023-05-10T08:21:16.827Z,101268.50
2023-05-10T08:23:44.765Z,101257.97
2023-05-10T08:26:11.932Z,101256.75
2023-05-10T08:28:38.545Z,101264.28
2023-05-10T08:31:05.986Z,101262.22
2023-05-10T08:33:32.589Z,101257.72
2023-05-10T08:35:59.063Z,101261.13
2023-05-10T08:38:25.868Z,101268.88
2023-05-10T08:40:58.015Z,101286.44
2023-05-10T08:43:32.502Z,101277.47
2023-05-10T08:46:03.967Z,101284.25
2023-05-10T08:48:32.008Z,101279.66
2023-05-10T08:51:01.632Z,101289.09
2023-05-10T08:53:30.046Z,101289.34
2023-05-10T08:55:56.658Z,101294.91
2023-05-10T08:58:23.381Z,101289.31
2023-05-10T09:00:51.923Z,101301.69
2023-05-10T09:03:18.875Z,101303.38
2023-05-10T09:05:46.121Z,101299.72
2023-05-10T09:08:14.279Z,101297.16
2023-05-10T09:10:43.257Z,101298.84
2023-05-10T09:13:11.957Z,101297.25
2023-05-10T09:15:39.443Z,101294.03
2023-05-10T09:18:05.968Z,101296.06
2023-05-10T09:20:32.573Z,101293.97
2023-05-10T09:22:59.273Z,101303.22
2023-05-10T09:25:25.746Z,101302.50
2023-05-10T09:27:53.619Z,101302.59
2023-05-10T09:30:28.702Z,101311.22
2023-05-10T09:32:55.740Z,101306.53
2023-05-10T09:35:28.022Z,101310.50
2023-05-10T09:37:58.220Z,101314.38
2023-05-10T09:40:26.342Z,101308.88
2023-05-10T09:43:03.402Z,101322.16
2023-05-10T09:45:31.906Z,101320.25
2023-05-10T09:48:00.268Z,101314.53
2023-05-10T09:50:27.707Z,101328.59
2023-05-10T09:53:00.975Z,101328.75
2023-05-10T09:55:42.526Z,101328.59
2023-05-10T09:58:11.840Z,101326.72
2023-05-10T10:00:43.167Z,101332.59
2023-05-10T10:03:18.383Z,101333.50
2023-05-10T10:05:45.673Z,101333.09
2023-05-10T10:08:13.772Z,101333.63
2023-05-10T10:10:46.294Z,101339.47
2023-05-10T10:13:13.551Z,101338.09
2023-05-10T10:15:40.391Z,101344.41
2023-05-10T10:18:09.059Z,101339.59
2023-05-10T10:20:38.522Z,101344.75
2023-05-10T10:23:04.984Z,101351.00
2023-05-10T10:25:32.779Z,101350.03
2023-05-10T10:28:22.981Z,101342.13
2023-05-10T10:30:52.340Z,101342.75
2023-05-10T10:33:37.161Z,101349.38
2023-05-10T10:36:05.088Z,101343.00
2023-05-10T10:38:47.875Z,101357.28
2023-05-10T10:41:33.063Z,101361.66
2023-05-10T10:44:47.856Z,101355.94
2023-05-10T10:47:19.795Z,101357.25
2023-05-10T10:50:02.892Z,101349.81
2023-05-10T10:52:34.510Z,101352.00
2023-05-10T10:55:08.242Z,101350.63
2023-05-10T10:58:03.787Z,101354.63
2023-05-10T11:00:36.510Z,101359.56
2023-05-10T11:03:15.548Z,101363.47
2023-05-10T11:05:43.938Z,101354.00
2023-05-10T11:08:12.998Z,101358.28
2023-05-10T11:10:40.659Z,101359.91
2023-05-10T11:13:09.074Z,101351.69
2023-05-10T11:15:35.612Z,101367.03
2023-05-10T11:18:18.048Z,101372.50
2023-05-10T11:20:44.606Z,101359.19
2023-05-10T11:23:16.854Z,101366.59
2023-05-10T11:25:45.222Z,101366.31
2023-05-10T11:28:15.226Z,101369.66
2023-05-10T11:30:44.498Z,101364.31
2023-05-10T11:33:17.062Z,101369.66
2023-05-10T11:35:44.085Z,101366.16
2023-05-10T11:38:12.433Z,101370.88
2023-05-10T11:40:40.064Z,101362.31
2023-05-10T11:43:06.867Z,101369.50
2023-05-10T11:45:34.431Z,101369.00
2023-05-10T11:48:01.848Z,101365.84
2023-05-10T11:50:28.877Z,101364.91
2023-05-10T11:52:59.793Z,101364.66
2023-05-10T11:55:26.661Z,101363.28
2023-05-10T11:57:54.521Z,101363.97
2023-05-10T12:00:21.318Z,101374.31
2023-05-10T12:02:48.581Z,101367.34
2023-05-10T12:05:15.629Z,101375.56
2023-05-10T12:07:42.162Z,101376.13
2023-05-10T12:10:11.051Z,101369.06
2023-05-10T12:12:45.116Z,101375.56
2023-05-10T12:15:17.749Z,101378.38
2023-05-10T12:17:45.639Z,101376.13
2023-05-10T12:20:16.263Z,101376.44
2023-05-10T12:22:51.082Z,101377.41
2023-05-10T12:25:19.059Z,101382.34
2023-05-10T12:30:38.742Z,101376.63
2023-05-10T12:33:14.145Z,101377.47
2023-05-10T12:35:54.866Z,101376.09
2023-05-10T12:38:40.059Z,101375.19
2023-05-10T12:41:14.693Z,101376.53
2023-05-10T12:43:41.506Z,101368.16
2023-05-10T12:46:09.843Z,101372.88
2023-05-10T12:48:37.675Z,101373.34
2023-05-10T12:51:05.021Z,101371.03
2023-05-10T12:53:32.149Z,101373.38
2023-05-10T12:55:58.653Z,101380.59
2023-05-10T12:58:34.881Z,101385.81
2023-05-10T13:01:02.611Z,101387.31
2023-05-10T13:03:29.117Z,101387.63
2023-05-10T13:05:55.593Z,101386.50
2023-05-10T13:08:22.119Z,101392.84
2023-05-10T13:10:48.758Z,101389.38
2023-05-10T13:13:16.111Z,101397.31
2023-05-10T13:15:42.617Z,101402.00
2023-05-10T13:18:09.288Z,101392.69
2023-05-10T13:20:36.038Z,101403.59
2023-05-10T13:23:03.676Z,101402.94
2023-05-10T13:25:30.956Z,101422.06
2023-05-10T13:27:57.484Z,101414.03
2023-05-10T13:30:25.013Z,101422.72
2023-05-10T13:32:51.768Z,101423.88
2023-05-10T13:35:18.494Z,101425.75
2023-05-10T13:37:44.988Z,101425.13
2023-05-10T13:40:11.753Z,101432.69
2023-05-10T13:42:38.492Z,101438.38
2023-05-10T13:45:05.527Z,101447.13
2023-05-10T13:47:32.022Z,101441.84
2023-05-10T13:49:59.320Z,101445.78
2023-05-10T13:52:26.173Z,101455.47
2023-05-10T13:54:55.776Z,101458.16
2023-05-10T13:57:22.915Z,101450.13
2023-05-10T13:59:49.512Z,101451.47
2023-05-10T14:02:16.100Z,101455.47
2023-05-10T14:04:42.550Z,101455.22
2023-05-10T14:07:09.208Z,101449.78
2023-05-10T14:09:35.667Z,101448.22
2023-05-10T14:12:03.159Z,101451.56
2023-05-10T14:14:30.398Z,101449.16
2023-05-10T14:16:56.946Z,101456.22
2023-05-10T14:19:23.493Z,101453.41
2023-05-10T14:21:49.988Z,101450.63
2023-05-10T14:24:16.437Z,101458.97
2023-05-10T14:26:42.902Z,101454.00
2023-05-10T14:29:11.497Z,101463.47
2023-05-10T14:31:39.031Z,101464.91
2023-05-10T14:34:06.734Z,101453.66
2023-05-10T14:36:33.354Z,101462.22
2023-05-10T14:38:59.899Z,101454.84
2023-05-10T14:41:26.371Z,101457.91
2023-05-10T14:43:53.663Z,101455.69
2023-05-10T14:46:20.881Z,101446.69
2023-05-10T14:48:47.576Z,101453.78
2023-05-10T14:51:14.252Z,101454.25
2023-05-10T14:53:40.729Z,101447.94
2023-05-10T14:56:08.068Z,101450.97
2023-05-10T14:58:34.619Z,101450.13
2023-05-10T15:01:01.233Z,101454.72
2023-05-10T15:03:28.457Z,101444.94
2023-05-10T15:05:57.014Z,101462.38
2023-05-10T15:08:25.473Z,101455.97
2023-05-10T15:10:52.505Z,101454.25
2023-05-10T15:13:19.016Z,101434.53
2023-05-10T15:15:45.539Z,101449.63
2023-05-10T15:18:12.335Z,101450.19
2023-05-10T15:20:38.965Z,101446.13
2023-05-10T15:23:05.493Z,101448.25
2023-05-10T15:25:32.189Z,101451.47
2023-05-10T15:27:58.759Z,101447.75
2023-05-10T15:30:25.326Z,101444.94
2023-05-10T15:32:51.971Z,101442.72
2023-05-10T15:35:18.986Z,101443.88
2023-05-10T15:37:48.446Z,101449.91
2023-05-10T15:40:15.017Z,101443.38
2023-05-10T15:42:41.600Z,101448.19
2023-05-10T15:45:11.769Z,101454.03
2023-05-10T15:47:40.639Z,101450.28
2023-05-10T15:50:08.060Z,101452.91
2023-05-10T15:52:34.788Z,101448.47
2023-05-10T15:55:01.227Z,101454.97
2023-05-10T15:57:27.896Z,101463.53
2023-05-10T15:59:54.531Z,101460.81
2023-05-10T16:02:22.505Z,101457.22
2023-05-10T16:04:49.268Z,101465.44
2023-05-10T16:07:16.009Z,101465.44
2023-05-10T16:09:42.637Z,101464.81
2023-05-10T16:12:09.324Z,101471.72
2023-05-10T16:14:35.834Z,101469.09
2023-05-10T16:17:03.183Z,101475.66
2023-05-10T16:19:31.936Z,101472.78
2023-05-10T16:21:58.531Z,101465.75
2023-05-10T16:24:25.984Z,101471.75
2023-05-10T16:26:52.807Z,101477.75
2023-05-10T16:29:19.514Z,101474.09
2023-05-10T16:31:46.350Z,101482.00
2023-05-10T16:34:12.837Z,101483.09
2023-05-10T16:36:39.365Z,101478.81
2023-05-10T16:39:05.865Z,101486.56
2023-05-10T16:41:33.982Z,101472.78
2023-05-10T16:44:00.676Z,101476.19
2023-05-10T16:46:27.301Z,101482.53
2023-05-10T16:48:53.922Z,101479.56
2023-05-10T16:51:20.489Z,101482.56
2023-05-10T16:53:47.114Z,101479.69
2023-05-10T16:56:13.562Z,101483.34
2023-05-10T16:58:40.040Z,101481.66
2023-05-10T17:01:07.193Z,101481.50
2023-05-10T17:03:34.189Z,101485.16
2023-05-10T17:06:00.786Z,101485.97
2023-05-10T17:08:27.274Z,101481.31
2023-05-10T17:10:53.852Z,101478.94
2023-05-10T17:13:20.284Z,101489.22
2023-05-10T17:15:47.469Z,101487.03
2023-05-10T17:18:14.026Z,101493.19
2023-05-10T17:20:43.170Z,101501.06
2023-05-10T17:23:09.790Z,101495.16
2023-05-10T17:25:36.813Z,101504.75
2023-05-10T17:28:03.924Z,101497.69
2023-05-10T17:30:32.623Z,101498.81
2023-05-10T17:33:00.151Z,101502.19
2023-05-10T17:35:26.884Z,101505.88
2023-05-10T17:37:53.787Z,101509.69
2023-05-10T17:40:20.346Z,101511.78
2023-05-10T17:42:47.024Z,101517.34
2023-05-10T17:45:13.498Z,101517.94
2023-05-10T17:47:40.049Z,101520.81
2023-05-10T17:50:07.038Z,101523.63
2023-05-10T17:52:33.755Z,101526.06
2023-05-10T17:55:00.289Z,101525.19
2023-05-10T17:57:26.855Z,101530.88
2023-05-10T17:59:53.467Z,101520.44
2023-05-10T18:02:20.125Z,101531.97
2023-05-10T18:04:48.612Z,101534.44
2023-05-10T18:07:15.589Z,101530.94
2023-05-10T18:09:42.137Z,101539.28
2023-05-10T18:12:08.680Z,101540.41
2023-05-10T18:14:41.218Z,101533.03
2023-05-10T18:17:09.689Z,101537.19
2023-05-10T18:19:36.505Z,101541.28
2023-05-10T18:22:03.235Z,101539.22
2023-05-10T18:24:38.930Z,101544.34
2023-05-10T18:27:08.666Z,101541.81
2023-05-10T18:29:36.222Z,101540.53
2023-05-10T18:32:02.988Z,101541.72
2023-05-10T18:34:29.558Z,101544.59
2023-05-10T18:36:56.414Z,101542.06
2023-05-10T18:39:23.593Z,101538.97
2023-05-10T18:41:50.260Z,101536.75
2023-05-10T18:44:16.901Z,101537.78
2023-05-10T18:46:43.587Z,101558.53
2023-05-10T18:49:10.135Z,101550.66
2023-05-10T18:51:36.941Z,101553.47
2023-05-10T18:54:03.577Z,101564.91
2023-05-10T18:56:30.076Z,101551.88
2023-05-10T18:58:56.626Z,101562.34
2023-05-10T19:01:23.238Z,101566.13
2023-05-10T19:03:49.784Z,101562.38
2023-05-10T19:06:16.456Z,101557.25
2023-05-10T19:08:42.954Z,101571.47
2023-05-10T19:11:09.481Z,101569.03
2023-05-10T19:13:36.080Z,101571.25
2023-05-10T19:16:05.782Z,101577.91
2023-05-10T19:18:32.738Z,101578.28
2023-05-10T19:21:02.349Z,101581.53
2023-05-10T19:23:30.222Z,101579.94
2023-05-10T19:25:57.014Z,101576.66
2023-05-10T19:28:23.495Z,101575.66
2023-05-10T19:30:50.330Z,101582.94
2023-05-10T19:33:18.410Z,101576.38
2023-05-10T19:35:48.635Z,101592.00
2023-05-10T19:38:15.165Z,101584.44
2023-05-10T19:40:41.839Z,101589.63
2023-05-10T19:43:08.608Z,101587.41
2023-05-10T19:45:37.134Z,101597.00
2023-05-10T19:48:03.843Z,101597.25
2023-05-10T19:50:30.505Z,101599.38
2023-05-10T19:52:58.439Z,101591.00
2023-05-10T19:55:30.889Z,101593.06
2023-05-10T19:57:57.929Z,101601.38
2023-05-10T20:00:24.941Z,101604.84
2023-05-10T20:02:51.716Z,101607.50
2023-05-10T20:05:18.456Z,101607.22
2023-05-10T20:07:45.457Z,101608.09
2023-05-10T20:10:12.174Z,101611.72
2023-05-10T20:12:38.688Z,101606.72
2023-05-10T20:15:07.497Z,101607.91
2023-05-10T20:17:35.842Z,101603.53
2023-05-10T20:20:02.330Z,101605.34
2023-05-10T20:22:28.829Z,101611.31
2023-05-10T20:24:56.284Z,101617.81
2023-05-10T20:27:22.888Z,101618.31
2023-05-10T20:29:49.363Z,101609.59
2023-05-10T20:32:16.054Z,101621.13
2023-05-10T20:34:42.515Z,101610.91
2023-05-10T20:37:09.140Z,101619.00
2023-05-10T20:39:35.821Z,101609.97
2023-05-10T20:42:02.390Z,101622.84
2023-05-10T20:44:28.888Z,101624.56
2023-05-10T20:46:55.437Z,101621.16
2023-05-10T20:49:21.880Z,101621.28
2023-05-10T20:51:48.345Z,101625.63
2023-05-10T20:54:14.802Z,101620.28
2023-05-10T20:56:41.314Z,101626.50
2023-05-10T20:59:07.817Z,101623.69
2023-05-10T21:01:34.317Z,101624.69
2023-05-10T21:04:00.876Z,101626.03
2023-05-10T21:06:27.316Z,101622.19
2023-05-10T21:08:53.838Z,101622.06
2023-05-10T21:11:20.786Z,101623.78
2023-05-10T21:13:47.298Z,101614.06
2023-05-10T21:16:13.834Z,101624.63
2023-05-10T21:18:40.350Z,101616.00
2023-05-10T21:21:06.896Z,101613.97
2023-05-10T21:23:34.668Z,101616.00
2023-05-10T21:26:03.723Z,101618.56
2023-05-10T21:28:30.167Z,101623.06
2023-05-10T21:30:56.954Z,101614.31
2023-05-10T21:33:23.812Z,101617.09
2023-05-10T21:35:50.563Z,101606.53
2023-05-10T21:38:17.198Z,101614.19
2023-05-10T21:40:43.740Z,101603.66
2023-05-10T21:43:11.310Z,101598.53
2023-05-10T21:45:38.102Z,101607.16
2023-05-10T21:48:04.946Z,101608.09
2023-05-10T21:50:31.420Z,101602.03
2023-05-10T21:52:58.112Z,101614.75
2023-05-10T21:55:24.722Z,101610.72
2023-05-10T21:57:51.248Z,101612.53
2023-05-10T22:00:19.238Z,101610.22
2023-05-10T22:02:46.795Z,101607.97
2023-05-10T22:05:13.589Z,101606.25
2023-05-10T22:07:40.082Z,101617.16
2023-05-10T22:10:08.509Z,101618.84
2023-05-10T22:12:35.217Z,101621.63
2023-05-10T22:15:10.226Z,101625.16
2023-05-10T22:17:40.745Z,101626.97
2023-05-10T22:20:08.886Z,101626.84
2023-05-10T22:22:36.517Z,101628.56
2023-05-10T22:25:03.054Z,101621.41
2023-05-10T22:27:29.519Z,101622.16
2023-05-10T22:29:56.537Z,101621.41
2023-05-10T22:32:23.066Z,101623.31
2023-05-10T22:34:49.587Z,101621.50
2023-05-10T22:37:17.953Z,101618.84
2023-05-10T22:39:48.625Z,101623.22
2023-05-10T22:42:15.729Z,101624.31
2023-05-10T22:44:42.718Z,101626.72
2023-05-10T22:47:09.399Z,101620.56
2023-05-10T22:49:36.154Z,101625.88
2023-05-10T22:52:02.601Z,101624.91
2023-05-10T22:54:29.164Z,101620.75
2023-05-10T22:56:56.508Z,101626.22
2023-05-10T22:59:23.523Z,101627.81
2023-05-10T23:01:50.289Z,101629.72
2023-05-10T23:04:16.951Z,101629.00
2023-05-10T23:06:43.540Z,101630.81
2023-05-10T23:09:10.083Z,101623.13
2023-05-10T23:11:36.573Z,101621.19
2023-05-10T23:14:03.282Z,101636.00
2023-05-10T23:16:30.512Z,101641.47
2023-05-10T23:18:57.312Z,101639.22
2023-05-10T23:21:26.595Z,101631.09
2023-05-10T23:23:53.080Z,101638.16
2023-05-10T23:26:19.563Z,101639.31
2023-05-10T23:28:46.052Z,101639.75
2023-05-10T23:31:12.663Z,101649.13
2023-05-10T23:33:39.146Z,101648.25
2023-05-10T23:36:05.771Z,101643.81
2023-05-10T23:38:32.239Z,101639.75
2023-05-10T23:40:58.772Z,101641.44
2023-05-10T23:43:25.453Z,101640.50
2023-05-10T23:45:54.145Z,101643.91
2023-05-10T23:48:21.074Z,101644.25
2023-05-10T23:50:47.866Z,101644.56
2023-05-10T23:53:14.458Z,101647.00
2023-05-10T23:55:40.940Z,101644.56
2023-05-10T23:58:07.421Z,101650.59
